Big Piney, WY weather

Big Piney-Marbleton Airport (AMOS), Big Piney, WY: 4/24/2017 04:53
Visibility10 statute milessun with a few clouds
View 7-Day Forecast
Area Summary
Sky/CloudsFew at 9500ft
Weather [last 24 hours]None
Pressure29.79 in.Hg (1009 hPa)
Dew Point25 °F (-3.9 °C)
Relative Humidity88.1 %
Temperature28 °F (-2.2 °C)red thermometer
Wind Chill21.7 °F (-5.73 °C)
Reading TimeMinimum to Maximum Temperature
6-hr ending 4/23@23:5330 °F to 50 °F (-1.1 °C to 10 °C)
6-hr ending 4/23@17:5348.9 °F to 61 °F (9.4 °C to 16.1 °C)
6-hr ending 4/23@11:5321.9 °F to 53.1 °F (-5.6 °C to 11.7 °C)
6-hr ending 4/23@05:5326.1 °F to 33.1 °F (-3.3 °C to 0.6 °C)
24-hr ending 4/24@00:5321.9 °F to 61 °F (-5.6 °C to 16.1 °C)
Wind5.75 MPH (5 KT) green arrow pointing 67.5 degrees
Wind FromEast/Northeast (070 Degrees)
Rolling 24-hr Peak Wind35.7 MPH (31 KT) on 4/23@15:19
Rolling 24-hr Peak Wind FromWest (280 Degrees)
Twilight Begins05:52Sunshine Yesterday
Sunrise06:22N/A
Sunset20:15
Twilight Ends20:46
METARKBPI 241053Z AUTO 07005KT 10SM FEW095 M02/M04 A2979 RMK AO2 SLP056 T10221039
Tags: